sensor_id;sensor_type;location;lat;lon;timestamp;temperature;humidity
45729;DHT22;31439;53.512;10.206;2023-02-14T12:45:51;13.40;99.90
45729;DHT22;31439;53.512;10.206;2023-02-14T13:04:53;14.50;99.90
45729;DHT22;31439;53.512;10.206;2023-02-14T13:20:44;15.10;99.90
45729;DHT22;31439;53.512;10.206;2023-02-14T13:23:19;15.20;99.90
45729;DHT22;31439;53.512;10.206;2023-02-14T13:26:02;15.10;99.90
45729;DHT22;31439;53.512;10.206;2023-02-14T13:28:29;15.30;99.90
45729;DHT22;31439;53.512;10.206;2023-02-14T13:30:57;15.40;99.90
45729;DHT22;31439;53.512;10.206;2023-02-14T13:33:32;15.40;99.90
45729;DHT22;31439;53.512;10.206;2023-02-14T13:36:06;15.60;99.90
45729;DHT22;31439;53.512;10.206;2023-02-14T13:38:40;15.70;99.90
45729;DHT22;31439;53.512;10.206;2023-02-14T13:41:07;15.90;99.90
45729;DHT22;31439;53.512;10.206;2023-02-14T13:47:02;15.80;99.90
45729;DHT22;31439;53.512;10.206;2023-02-14T13:51:55;16.00;99.90
45729;DHT22;31439;53.512;10.206;2023-02-14T13:56:58;16.30;99.90
45729;DHT22;31439;53.512;10.206;2023-02-14T13:59:27;16.30;99.90
45729;DHT22;31439;53.512;10.206;2023-02-14T14:01:53;16.30;99.90
45729;DHT22;31439;53.512;10.206;2023-02-14T14:09:53;16.60;99.90
45729;DHT22;31439;53.512;10.206;2023-02-14T14:15:12;16.80;99.90
45729;DHT22;31439;53.512;10.206;2023-02-14T14:17:45;17.00;99.90
45729;DHT22;31439;53.512;10.206;2023-02-14T14:22:53;17.30;99.90
45729;DHT22;31439;53.512;10.206;2023-02-14T14:25:38;17.30;99.90
45729;DHT22;31439;53.512;10.206;2023-02-14T14:28:17;17.50;99.90
45729;DHT22;31439;53.512;10.206;2023-02-14T14:30:44;17.40;99.90
45729;DHT22;31439;53.512;10.206;2023-02-14T14:33:36;17.30;99.90
45729;DHT22;31439;53.512;10.206;2023-02-14T14:36:04;17.20;99.90
45729;DHT22;31439;53.512;10.206;2023-02-14T14:38:31;17.10;99.90
45729;DHT22;31439;53.512;10.206;2023-02-14T14:40:59;17.10;99.90
45729;DHT22;31439;53.512;10.206;2023-02-14T14:43:34;16.90;99.90
45729;DHT22;31439;53.512;10.206;2023-02-14T14:46:01;17.10;99.90
45729;DHT22;31439;53.512;10.206;2023-02-14T14:48:31;17.10;99.90
45729;DHT22;31439;53.512;10.206;2023-02-14T14:50:58;17.00;99.90
45729;DHT22;31439;53.512;10.206;2023-02-14T14:53:41;16.80;99.90
45729;DHT22;31439;53.512;10.206;2023-02-14T14:56:23;16.50;99.90
45729;DHT22;31439;53.512;10.206;2023-02-14T14:58:50;16.10;99.90
45729;DHT22;31439;53.512;10.206;2023-02-14T15:01:32;16.10;99.90
45729;DHT22;31439;53.512;10.206;2023-02-14T15:04:17;16.00;99.90
45729;DHT22;31439;53.512;10.206;2023-02-14T15:06:44;15.90;99.90
45729;DHT22;31439;53.512;10.206;2023-02-14T15:09:13;15.50;99.90
45729;DHT22;31439;53.512;10.206;2023-02-14T15:11:40;15.50;99.90
45729;DHT22;31439;53.512;10.206;2023-02-14T15:14:26;15.50;99.90
45729;DHT22;31439;53.512;10.206;2023-02-14T15:22:22;15.10;99.90
45729;DHT22;31439;53.512;10.206;2023-02-14T15:24:46;14.90;99.90
45729;DHT22;31439;53.512;10.206;2023-02-14T15:27:18;14.50;99.90
45729;DHT22;31439;53.512;10.206;2023-02-14T15:29:59;14.40;99.90
45729;DHT22;31439;53.512;10.206;2023-02-14T15:32:29;14.30;99.90
45729;DHT22;31439;53.512;10.206;2023-02-14T15:34:55;14.00;99.90
45729;DHT22;31439;53.512;10.206;2023-02-14T15:37:23;13.80;99.90
45729;DHT22;31439;53.512;10.206;2023-02-14T15:39:53;13.50;99.90
45729;DHT22;31439;53.512;10.206;2023-02-14T15:42:29;13.30;99.90
45729;DHT22;31439;53.512;10.206;2023-02-14T15:47:44;12.90;99.90
45729;DHT22;31439;53.512;10.206;2023-02-14T15:50:22;12.90;99.90
45729;DHT22;31439;53.512;10.206;2023-02-14T15:52:52;12.90;99.90
45729;DHT22;31439;53.512;10.206;2023-02-14T15:55:24;12.80;99.90
45729;DHT22;31439;53.512;10.206;2023-02-14T15:58:04;12.90;99.90
45729;DHT22;31439;53.512;10.206;2023-02-14T16:00:31;12.60;99.90
45729;DHT22;31439;53.512;10.206;2023-02-14T16:03:06;12.40;99.90
45729;DHT22;31439;53.512;10.206;2023-02-14T16:05:35;12.20;99.90
45729;DHT22;31439;53.512;10.206;2023-02-14T16:08:37;12.10;99.90
45729;DHT22;31439;53.512;10.206;2023-02-14T16:11:05;11.80;99.90
45729;DHT22;31439;53.512;10.206;2023-02-14T16:13:42;11.60;99.90
45729;DHT22;31439;53.512;10.206;2023-02-14T16:16:11;11.50;99.90
45729;DHT22;31439;53.512;10.206;2023-02-14T16:18:57;11.40;99.90
45729;DHT22;31439;53.512;10.206;2023-02-14T16:21:28;11.30;99.90
45729;DHT22;31439;53.512;10.206;2023-02-14T16:26:37;11.00;99.90
45729;DHT22;31439;53.512;10.206;2023-02-14T16:29:11;10.90;99.90
45729;DHT22;31439;53.512;10.206;2023-02-14T16:31:42;10.90;99.90
45729;DHT22;31439;53.512;10.206;2023-02-14T16:34:10;10.80;99.90
45729;DHT22;31439;53.512;10.206;2023-02-14T16:36:36;10.70;99.90
45729;DHT22;31439;53.512;10.206;2023-02-14T16:39:03;10.70;99.90
45729;DHT22;31439;53.512;10.206;2023-02-14T16:41:33;10.60;99.90
45729;DHT22;31439;53.512;10.206;2023-02-14T16:43:59;10.50;99.90
45729;DHT22;31439;53.512;10.206;2023-02-14T16:46:28;10.50;99.90
45729;DHT22;31439;53.512;10.206;2023-02-14T16:48:54;10.40;99.90
45729;DHT22;31439;53.512;10.206;2023-02-14T16:51:22;10.40;99.90
45729;DHT22;31439;53.512;10.206;2023-02-14T16:53:49;10.30;99.90
45729;DHT22;31439;53.512;10.206;2023-02-14T16:56:38;10.30;99.90
45729;DHT22;31439;53.512;10.206;2023-02-14T16:59:08;10.20;99.90
45729;DHT22;31439;53.512;10.206;2023-02-14T17:01:35;10.20;99.90
45729;DHT22;31439;53.512;10.206;2023-02-14T17:04:00;10.10;99.90
45729;DHT22;31439;53.512;10.206;2023-02-14T17:06:27;10.10;99.90
45729;DHT22;31439;53.512;10.206;2023-02-14T17:08:56;10.10;99.90
45729;DHT22;31439;53.512;10.206;2023-02-14T17:11:27;10.00;99.90
45729;DHT22;31439;53.512;10.206;2023-02-14T17:13:55;10.00;99.90
45729;DHT22;31439;53.512;10.206;2023-02-14T17:16:24;9.90;99.90
45729;DHT22;31439;53.512;10.206;2023-02-14T17:18:51;10.00;99.90
45729;DHT22;31439;53.512;10.206;2023-02-14T17:21:20;10.60;99.90
45729;DHT22;31439;53.512;10.206;2023-02-14T17:23:46;10.80;99.90
45729;DHT22;31439;53.512;10.206;2023-02-14T17:26:12;10.60;99.90
45729;DHT22;31439;53.512;10.206;2023-02-14T17:28:38;10.30;99.90
45729;DHT22;31439;53.512;10.206;2023-02-14T17:31:09;10.00;99.90
45729;DHT22;31439;53.512;10.206;2023-02-14T17:33:35;9.90;99.90
45729;DHT22;31439;53.512;10.206;2023-02-14T17:36:05;9.80;99.90
45729;DHT22;31439;53.512;10.206;2023-02-14T17:38:33;9.70;99.90
45729;DHT22;31439;53.512;10.206;2023-02-14T17:41:14;9.60;99.90
45729;DHT22;31439;53.512;10.206;2023-02-14T17:43:40;9.50;99.90
45729;DHT22;31439;53.512;10.206;2023-02-14T17:46:05;9.50;99.90
45729;DHT22;31439;53.512;10.206;2023-02-14T17:48:31;9.40;99.90
45729;DHT22;31439;53.512;10.206;2023-02-14T17:50:57;9.30;99.90
45729;DHT22;31439;53.512;10.206;2023-02-14T17:53:26;9.30;99.90
45729;DHT22;31439;53.512;10.206;2023-02-14T17:55:52;9.20;99.90
45729;DHT22;31439;53.512;10.206;2023-02-14T17:58:18;9.20;99.90
45729;DHT22;31439;53.512;10.206;2023-02-14T18:00:43;9.10;99.90
45729;DHT22;31439;53.512;10.206;2023-02-14T18:03:09;9.20;99.90
45729;DHT22;31439;53.512;10.206;2023-02-14T18:05:35;9.10;99.90
45729;DHT22;31439;53.512;10.206;2023-02-14T18:08:01;9.10;99.90
45729;DHT22;31439;53.512;10.206;2023-02-14T18:10:27;9.10;99.90
45729;DHT22;31439;53.512;10.206;2023-02-14T18:12:53;9.10;99.90
45729;DHT22;31439;53.512;10.206;2023-02-14T18:15:18;9.20;99.90
45729;DHT22;31439;53.512;10.206;2023-02-14T18:17:48;9.20;99.90
45729;DHT22;31439;53.512;10.206;2023-02-14T18:20:14;9.20;99.90
45729;DHT22;31439;53.512;10.206;2023-02-14T18:22:39;9.20;99.90
45729;DHT22;31439;53.512;10.206;2023-02-14T18:25:05;9.20;99.90
45729;DHT22;31439;53.512;10.206;2023-02-14T18:27:31;9.20;99.90
45729;DHT22;31439;53.512;10.206;2023-02-14T18:29:57;9.20;99.90
45729;DHT22;31439;53.512;10.206;2023-02-14T18:32:23;9.20;99.90
45729;DHT22;31439;53.512;10.206;2023-02-14T18:34:48;9.10;99.90
45729;DHT22;31439;53.512;10.206;2023-02-14T18:37:15;9.10;99.90
45729;DHT22;31439;53.512;10.206;2023-02-14T18:39:41;9.10;99.90
45729;DHT22;31439;53.512;10.206;2023-02-14T18:42:06;9.10;99.90
45729;DHT22;31439;53.512;10.206;2023-02-14T18:44:32;9.10;99.90
45729;DHT22;31439;53.512;10.206;2023-02-14T18:46:58;9.10;99.90
45729;DHT22;31439;53.512;10.206;2023-02-14T18:49:25;9.00;99.90
45729;DHT22;31439;53.512;10.206;2023-02-14T18:51:51;9.00;99.90
45729;DHT22;31439;53.512;10.206;2023-02-14T18:54:17;9.00;99.90
45729;DHT22;31439;53.512;10.206;2023-02-14T18:56:42;8.90;99.90
45729;DHT22;31439;53.512;10.206;2023-02-14T18:59:09;8.90;99.90
45729;DHT22;31439;53.512;10.206;2023-02-14T19:01:38;8.80;99.90
45729;DHT22;31439;53.512;10.206;2023-02-14T19:04:06;8.80;99.90
45729;DHT22;31439;53.512;10.206;2023-02-14T19:06:33;8.70;99.90
45729;DHT22;31439;53.512;10.206;2023-02-14T19:08:59;8.70;99.90
45729;DHT22;31439;53.512;10.206;2023-02-14T19:11:28;8.70;99.90
45729;DHT22;31439;53.512;10.206;2023-02-14T19:13:56;8.60;99.90
45729;DHT22;31439;53.512;10.206;2023-02-14T19:16:28;8.50;99.90
45729;DHT22;31439;53.512;10.206;2023-02-14T19:18:54;8.50;99.90
45729;DHT22;31439;53.512;10.206;2023-02-14T19:21:25;8.50;99.90
45729;DHT22;31439;53.512;10.206;2023-02-14T19:23:53;8.50;99.90
45729;DHT22;31439;53.512;10.206;2023-02-14T19:26:31;8.40;99.90
45729;DHT22;31439;53.512;10.206;2023-02-14T19:29:01;8.40;99.90
45729;DHT22;31439;53.512;10.206;2023-02-14T19:31:27;8.40;99.90
45729;DHT22;31439;53.512;10.206;2023-02-14T19:33:53;8.40;99.90
45729;DHT22;31439;53.512;10.206;2023-02-14T19:36:21;8.30;99.90
45729;DHT22;31439;53.512;10.206;2023-02-14T19:38:49;8.30;99.90
45729;DHT22;31439;53.512;10.206;2023-02-14T19:41:16;8.30;99.90
45729;DHT22;31439;53.512;10.206;2023-02-14T19:43:43;8.20;99.90
45729;DHT22;31439;53.512;10.206;2023-02-14T19:46:10;8.10;99.90
45729;DHT22;31439;53.512;10.206;2023-02-14T19:48:37;8.10;99.90
45729;DHT22;31439;53.512;10.206;2023-02-14T19:51:02;8.00;99.90
45729;DHT22;31439;53.512;10.206;2023-02-14T19:53:28;8.00;99.90
45729;DHT22;31439;53.512;10.206;2023-02-14T19:55:54;8.00;99.90
45729;DHT22;31439;53.512;10.206;2023-02-14T19:58:20;7.90;99.90
45729;DHT22;31439;53.512;10.206;2023-02-14T20:00:53;7.90;99.90
45729;DHT22;31439;53.512;10.206;2023-02-14T20:03:19;7.90;99.90
45729;DHT22;31439;53.512;10.206;2023-02-14T20:05:44;7.80;99.90
45729;DHT22;31439;53.512;10.206;2023-02-14T20:08:10;7.70;99.90
45729;DHT22;31439;53.512;10.206;2023-02-14T20:10:36;7.70;99.90
45729;DHT22;31439;53.512;10.206;2023-02-14T20:13:01;7.70;99.90
45729;DHT22;31439;53.512;10.206;2023-02-14T20:15:27;7.70;99.90
45729;DHT22;31439;53.512;10.206;2023-02-14T20:17:54;7.70;99.90
45729;DHT22;31439;53.512;10.206;2023-02-14T20:20:19;7.60;99.90
45729;DHT22;31439;53.512;10.206;2023-02-14T20:22:46;7.70;99.90
45729;DHT22;31439;53.512;10.206;2023-02-14T20:25:15;7.60;99.90
45729;DHT22;31439;53.512;10.206;2023-02-14T20:27:40;7.60;99.90
45729;DHT22;31439;53.512;10.206;2023-02-14T20:30:06;7.60;99.90
45729;DHT22;31439;53.512;10.206;2023-02-14T20:32:33;7.50;99.90
45729;DHT22;31439;53.512;10.206;2023-02-14T20:35:00;7.50;99.90
45729;DHT22;31439;53.512;10.206;2023-02-14T20:37:26;7.50;99.90
45729;DHT22;31439;53.512;10.206;2023-02-14T20:39:51;7.40;99.90
45729;DHT22;31439;53.512;10.206;2023-02-14T20:42:17;7.30;99.90
45729;DHT22;31439;53.512;10.206;2023-02-14T20:44:43;7.30;99.90
45729;DHT22;31439;53.512;10.206;2023-02-14T20:47:10;7.30;99.90
45729;DHT22;31439;53.512;10.206;2023-02-14T20:49:36;7.30;99.90
45729;DHT22;31439;53.512;10.206;2023-02-14T20:52:02;7.30;99.90
45729;DHT22;31439;53.512;10.206;2023-02-14T20:54:28;7.30;99.90
45729;DHT22;31439;53.512;10.206;2023-02-14T20:56:54;7.30;99.90
45729;DHT22;31439;53.512;10.206;2023-02-14T20:59:20;7.30;99.90
45729;DHT22;31439;53.512;10.206;2023-02-14T21:01:54;7.30;99.90
45729;DHT22;31439;53.512;10.206;2023-02-14T21:04:23;7.20;99.90
45729;DHT22;31439;53.512;10.206;2023-02-14T21:06:49;7.20;99.90
45729;DHT22;31439;53.512;10.206;2023-02-14T21:09:15;7.10;99.90
45729;DHT22;31439;53.512;10.206;2023-02-14T21:11:43;7.10;99.90
45729;DHT22;31439;53.512;10.206;2023-02-14T21:14:08;7.00;99.90
45729;DHT22;31439;53.512;10.206;2023-02-14T21:16:34;7.00;99.90
45729;DHT22;31439;53.512;10.206;2023-02-14T21:19:00;7.00;99.90
45729;DHT22;31439;53.512;10.206;2023-02-14T21:21:30;7.10;99.90
45729;DHT22;31439;53.512;10.206;2023-02-14T21:23:59;7.10;99.90
45729;DHT22;31439;53.512;10.206;2023-02-14T21:26:26;7.10;99.90
45729;DHT22;31439;53.512;10.206;2023-02-14T21:28:52;7.00;99.90
45729;DHT22;31439;53.512;10.206;2023-02-14T21:31:20;7.00;99.90
45729;DHT22;31439;53.512;10.206;2023-02-14T21:33:53;7.00;99.90
45729;DHT22;31439;53.512;10.206;2023-02-14T21:36:20;6.90;99.90
45729;DHT22;31439;53.512;10.206;2023-02-14T21:38:46;6.90;99.90
45729;DHT22;31439;53.512;10.206;2023-02-14T21:41:16;6.80;99.90
45729;DHT22;31439;53.512;10.206;2023-02-14T21:43:43;6.80;99.90
45729;DHT22;31439;53.512;10.206;2023-02-14T21:46:12;6.80;99.90
45729;DHT22;31439;53.512;10.206;2023-02-14T21:48:38;6.80;99.90
45729;DHT22;31439;53.512;10.206;2023-02-14T21:51:23;6.80;99.90
45729;DHT22;31439;53.512;10.206;2023-02-14T21:53:49;6.80;99.90
45729;DHT22;31439;53.512;10.206;2023-02-14T21:56:16;6.80;99.90
45729;DHT22;31439;53.512;10.206;2023-02-14T21:58:45;6.70;99.90
45729;DHT22;31439;53.512;10.206;2023-02-14T22:03:41;6.70;99.90
45729;DHT22;31439;53.512;10.206;2023-02-14T22:06:07;6.70;99.90
45729;DHT22;31439;53.512;10.206;2023-02-14T22:08:33;6.80;99.90
45729;DHT22;31439;53.512;10.206;2023-02-14T22:11:03;6.70;99.90
45729;DHT22;31439;53.512;10.206;2023-02-14T22:13:29;6.70;99.90
45729;DHT22;31439;53.512;10.206;2023-02-14T22:16:00;6.70;99.90
45729;DHT22;31439;53.512;10.206;2023-02-14T22:18:27;6.70;99.90
45729;DHT22;31439;53.512;10.206;2023-02-14T22:20:57;6.70;99.90
45729;DHT22;31439;53.512;10.206;2023-02-14T22:23:23;6.70;99.90
45729;DHT22;31439;53.512;10.206;2023-02-14T22:25:49;6.80;99.90
45729;DHT22;31439;53.512;10.206;2023-02-14T22:28:14;6.60;99.90
45729;DHT22;31439;53.512;10.206;2023-02-14T22:30:40;7.40;99.90
45729;DHT22;31439;53.512;10.206;2023-02-14T22:33:06;7.10;99.90
45729;DHT22;31439;53.512;10.206;2023-02-14T22:35:31;6.80;99.90
45729;DHT22;31439;53.512;10.206;2023-02-14T22:37:57;6.70;99.90
45729;DHT22;31439;53.512;10.206;2023-02-14T22:40:22;6.70;99.90
45729;DHT22;31439;53.512;10.206;2023-02-14T22:42:48;6.60;99.90
45729;DHT22;31439;53.512;10.206;2023-02-14T22:45:14;6.50;99.90
45729;DHT22;31439;53.512;10.206;2023-02-14T22:47:39;6.60;99.90
45729;DHT22;31439;53.512;10.206;2023-02-14T22:50:05;6.50;99.90
45729;DHT22;31439;53.512;10.206;2023-02-14T22:52:33;6.50;99.90
45729;DHT22;31439;53.512;10.206;2023-02-14T22:54:59;6.40;99.90
45729;DHT22;31439;53.512;10.206;2023-02-14T22:57:24;6.50;99.90
45729;DHT22;31439;53.512;10.206;2023-02-14T22:59:50;6.40;99.90
45729;DHT22;31439;53.512;10.206;2023-02-14T23:02:16;6.40;99.90
45729;DHT22;31439;53.512;10.206;2023-02-14T23:04:41;6.40;99.90
45729;DHT22;31439;53.512;10.206;2023-02-14T23:07:09;6.40;99.90
45729;DHT22;31439;53.512;10.206;2023-02-14T23:09:35;6.40;99.90
45729;DHT22;31439;53.512;10.206;2023-02-14T23:12:02;6.40;99.90
45729;DHT22;31439;53.512;10.206;2023-02-14T23:14:27;6.40;99.90
45729;DHT22;31439;53.512;10.206;2023-02-14T23:17:14;6.40;99.90
45729;DHT22;31439;53.512;10.206;2023-02-14T23:19:49;6.40;99.90
45729;DHT22;31439;53.512;10.206;2023-02-14T23:22:42;6.40;99.90
45729;DHT22;31439;53.512;10.206;2023-02-14T23:25:09;6.40;99.90
45729;DHT22;31439;53.512;10.206;2023-02-14T23:27:43;6.40;99.90
45729;DHT22;31439;53.512;10.206;2023-02-14T23:30:12;6.40;99.90
45729;DHT22;31439;53.512;10.206;2023-02-14T23:32:38;6.40;99.90
45729;DHT22;31439;53.512;10.206;2023-02-14T23:35:05;6.30;99.90
45729;DHT22;31439;53.512;10.206;2023-02-14T23:37:30;6.30;99.90
45729;DHT22;31439;53.512;10.206;2023-02-14T23:39:56;6.30;99.90
45729;DHT22;31439;53.512;10.206;2023-02-14T23:42:21;6.30;99.90
45729;DHT22;31439;53.512;10.206;2023-02-14T23:44:47;6.40;99.90
45729;DHT22;31439;53.512;10.206;2023-02-14T23:47:14;6.40;99.90
45729;DHT22;31439;53.512;10.206;2023-02-14T23:49:40;6.30;99.90
45729;DHT22;31439;53.512;10.206;2023-02-14T23:52:12;6.30;99.90
45729;DHT22;31439;53.512;10.206;2023-02-14T23:54:38;6.20;99.90
45729;DHT22;31439;53.512;10.206;2023-02-14T23:57:04;6.20;99.90
45729;DHT22;31439;53.512;10.206;2023-02-14T23:59:31;6.30;99.90
